sensor_id;sensor_type;location;lat;lon;timestamp;P1;durP1;ratioP1;P2;durP2;ratioP2
26034;SDS011;13809;48.632;11.576;2022-10-16T00:04:43;3.10;;;2.20;;
26034;SDS011;13809;48.632;11.576;2022-10-16T00:09:47;2.60;;;2.40;;
26034;SDS011;13809;48.632;11.576;2022-10-16T00:14:51;3.23;;;2.50;;
26034;SDS011;13809;48.632;11.576;2022-10-16T00:19:54;2.70;;;2.50;;
26034;SDS011;13809;48.632;11.576;2022-10-16T00:24:58;2.33;;;2.10;;
26034;SDS011;13809;48.632;11.576;2022-10-16T00:30:02;3.17;;;2.10;;
26034;SDS011;13809;48.632;11.576;2022-10-16T00:35:06;3.83;;;2.30;;
26034;SDS011;13809;48.632;11.576;2022-10-16T00:40:10;2.37;;;2.17;;
26034;SDS011;13809;48.632;11.576;2022-10-16T00:45:14;3.20;;;2.27;;
26034;SDS011;13809;48.632;11.576;2022-10-16T00:50:20;2.30;;;2.10;;
26034;SDS011;13809;48.632;11.576;2022-10-16T00:55:29;2.13;;;1.83;;
26034;SDS011;13809;48.632;11.576;2022-10-16T01:00:34;2.10;;;1.90;;
26034;SDS011;13809;48.632;11.576;2022-10-16T01:05:44;2.10;;;2.00;;
26034;SDS011;13809;48.632;11.576;2022-10-16T01:10:57;2.20;;;1.83;;
26034;SDS011;13809;48.632;11.576;2022-10-16T01:16:06;4.07;;;1.63;;
26034;SDS011;13809;48.632;11.576;2022-10-16T01:21:18;4.67;;;1.63;;
26034;SDS011;13809;48.632;11.576;2022-10-16T01:26:31;2.33;;;1.97;;
26034;SDS011;13809;48.632;11.576;2022-10-16T01:31:47;1.90;;;1.70;;
26034;SDS011;13809;48.632;11.576;2022-10-16T01:36:55;2.00;;;1.80;;
26034;SDS011;13809;48.632;11.576;2022-10-16T01:42:01;2.80;;;1.87;;
26034;SDS011;13809;48.632;11.576;2022-10-16T01:47:09;2.17;;;1.80;;
26034;SDS011;13809;48.632;11.576;2022-10-16T01:52:15;1.70;;;1.60;;
26034;SDS011;13809;48.632;11.576;2022-10-16T01:57:23;2.03;;;1.53;;
26034;SDS011;13809;48.632;11.576;2022-10-16T02:02:29;2.20;;;2.00;;
26034;SDS011;13809;48.632;11.576;2022-10-16T02:07:33;3.80;;;2.00;;
26034;SDS011;13809;48.632;11.576;2022-10-16T02:12:37;5.47;;;1.80;;
26034;SDS011;13809;48.632;11.576;2022-10-16T02:17:44;4.80;;;1.50;;
26034;SDS011;13809;48.632;11.576;2022-10-16T02:22:48;3.83;;;1.73;;
26034;SDS011;13809;48.632;11.576;2022-10-16T02:27:53;2.37;;;1.60;;
26034;SDS011;13809;48.632;11.576;2022-10-16T02:33:01;2.13;;;1.93;;
26034;SDS011;13809;48.632;11.576;2022-10-16T02:38:08;2.37;;;1.60;;
26034;SDS011;13809;48.632;11.576;2022-10-16T02:43:12;2.53;;;1.87;;
26034;SDS011;13809;48.632;11.576;2022-10-16T02:48:17;2.47;;;1.70;;
26034;SDS011;13809;48.632;11.576;2022-10-16T02:53:20;2.07;;;1.60;;
26034;SDS011;13809;48.632;11.576;2022-10-16T02:58:23;2.27;;;1.70;;
26034;SDS011;13809;48.632;11.576;2022-10-16T03:03:28;4.83;;;1.43;;
26034;SDS011;13809;48.632;11.576;2022-10-16T03:08:31;5.03;;;1.70;;
26034;SDS011;13809;48.632;11.576;2022-10-16T03:13:34;3.33;;;1.40;;
26034;SDS011;13809;48.632;11.576;2022-10-16T03:18:39;2.80;;;1.60;;
26034;SDS011;13809;48.632;11.576;2022-10-16T03:23:42;2.83;;;1.67;;
26034;SDS011;13809;48.632;11.576;2022-10-16T03:28:45;1.70;;;1.50;;
26034;SDS011;13809;48.632;11.576;2022-10-16T03:33:50;3.47;;;1.57;;
26034;SDS011;13809;48.632;11.576;2022-10-16T03:38:53;2.40;;;1.70;;
26034;SDS011;13809;48.632;11.576;2022-10-16T03:43:56;1.80;;;1.57;;
26034;SDS011;13809;48.632;11.576;2022-10-16T03:49:00;3.90;;;1.80;;
26034;SDS011;13809;48.632;11.576;2022-10-16T03:54:09;4.40;;;1.53;;
26034;SDS011;13809;48.632;11.576;2022-10-16T03:59:12;1.60;;;1.50;;
26034;SDS011;13809;48.632;11.576;2022-10-16T04:04:16;2.07;;;1.80;;
26034;SDS011;13809;48.632;11.576;2022-10-16T04:09:20;2.43;;;1.57;;
26034;SDS011;13809;48.632;11.576;2022-10-16T04:14:23;2.50;;;1.90;;
26034;SDS011;13809;48.632;11.576;2022-10-16T04:19:28;4.07;;;1.50;;
26034;SDS011;13809;48.632;11.576;2022-10-16T04:24:31;3.23;;;1.50;;
26034;SDS011;13809;48.632;11.576;2022-10-16T04:29:34;2.37;;;1.50;;
26034;SDS011;13809;48.632;11.576;2022-10-16T04:34:39;4.20;;;1.60;;
26034;SDS011;13809;48.632;11.576;2022-10-16T04:39:42;2.30;;;1.87;;
26034;SDS011;13809;48.632;11.576;2022-10-16T04:44:46;1.97;;;1.87;;
26034;SDS011;13809;48.632;11.576;2022-10-16T04:49:50;1.93;;;1.83;;
26034;SDS011;13809;48.632;11.576;2022-10-16T04:54:53;2.03;;;1.70;;
26034;SDS011;13809;48.632;11.576;2022-10-16T04:59:57;1.80;;;1.70;;
26034;SDS011;13809;48.632;11.576;2022-10-16T05:05:02;5.27;;;1.60;;
26034;SDS011;13809;48.632;11.576;2022-10-16T05:10:05;2.40;;;1.70;;
26034;SDS011;13809;48.632;11.576;2022-10-16T05:15:09;2.00;;;1.60;;
26034;SDS011;13809;48.632;11.576;2022-10-16T05:20:14;1.80;;;1.43;;
26034;SDS011;13809;48.632;11.576;2022-10-16T05:25:17;2.73;;;1.80;;
26034;SDS011;13809;48.632;11.576;2022-10-16T05:30:20;1.83;;;1.70;;
26034;SDS011;13809;48.632;11.576;2022-10-16T05:35:25;4.63;;;2.20;;
26034;SDS011;13809;48.632;11.576;2022-10-16T05:40:28;3.00;;;2.10;;
26034;SDS011;13809;48.632;11.576;2022-10-16T05:45:31;2.50;;;2.00;;
26034;SDS011;13809;48.632;11.576;2022-10-16T05:50:36;2.73;;;2.03;;
26034;SDS011;13809;48.632;11.576;2022-10-16T05:55:39;1.73;;;1.63;;
26034;SDS011;13809;48.632;11.576;2022-10-16T06:00:42;2.43;;;1.80;;
26034;SDS011;13809;48.632;11.576;2022-10-16T06:05:46;2.33;;;1.90;;
26034;SDS011;13809;48.632;11.576;2022-10-16T06:10:59;2.50;;;2.20;;
26034;SDS011;13809;48.632;11.576;2022-10-16T06:16:03;2.30;;;2.10;;
26034;SDS011;13809;48.632;11.576;2022-10-16T06:21:09;1.80;;;1.70;;
26034;SDS011;13809;48.632;11.576;2022-10-16T06:26:15;4.17;;;2.33;;
26034;SDS011;13809;48.632;11.576;2022-10-16T06:31:20;2.33;;;2.10;;
26034;SDS011;13809;48.632;11.576;2022-10-16T06:36:25;2.17;;;1.97;;
26034;SDS011;13809;48.632;11.576;2022-10-16T06:41:28;2.30;;;2.00;;
26034;SDS011;13809;48.632;11.576;2022-10-16T06:46:32;5.03;;;1.80;;
26034;SDS011;13809;48.632;11.576;2022-10-16T06:51:36;2.40;;;1.90;;
26034;SDS011;13809;48.632;11.576;2022-10-16T06:56:43;2.70;;;1.63;;
26034;SDS011;13809;48.632;11.576;2022-10-16T07:01:47;2.10;;;1.90;;
26034;SDS011;13809;48.632;11.576;2022-10-16T07:06:51;2.63;;;2.00;;
26034;SDS011;13809;48.632;11.576;2022-10-16T07:11:55;2.53;;;1.60;;
26034;SDS011;13809;48.632;11.576;2022-10-16T07:16:58;4.30;;;2.00;;
26034;SDS011;13809;48.632;11.576;2022-10-16T07:22:02;1.90;;;1.70;;
26034;SDS011;13809;48.632;11.576;2022-10-16T07:27:06;2.63;;;1.70;;
26034;SDS011;13809;48.632;11.576;2022-10-16T07:32:09;1.90;;;1.80;;
26034;SDS011;13809;48.632;11.576;2022-10-16T07:37:13;1.80;;;1.70;;
26034;SDS011;13809;48.632;11.576;2022-10-16T07:42:16;1.73;;;1.63;;
26034;SDS011;13809;48.632;11.576;2022-10-16T07:47:21;1.70;;;1.60;;
26034;SDS011;13809;48.632;11.576;2022-10-16T07:52:26;1.60;;;1.50;;
26034;SDS011;13809;48.632;11.576;2022-10-16T07:57:29;4.90;;;1.83;;
26034;SDS011;13809;48.632;11.576;2022-10-16T08:02:32;2.00;;;1.80;;
26034;SDS011;13809;48.632;11.576;2022-10-16T08:07:37;1.93;;;1.83;;
26034;SDS011;13809;48.632;11.576;2022-10-16T08:12:40;1.60;;;1.50;;
26034;SDS011;13809;48.632;11.576;2022-10-16T08:17:43;2.47;;;1.90;;
26034;SDS011;13809;48.632;11.576;2022-10-16T08:22:47;1.90;;;1.80;;
26034;SDS011;13809;48.632;11.576;2022-10-16T08:27:51;2.00;;;1.70;;
26034;SDS011;13809;48.632;11.576;2022-10-16T08:32:54;3.17;;;1.83;;
26034;SDS011;13809;48.632;11.576;2022-10-16T08:37:58;2.80;;;1.87;;
26034;SDS011;13809;48.632;11.576;2022-10-16T08:43:08;3.33;;;1.70;;
26034;SDS011;13809;48.632;11.576;2022-10-16T08:48:23;1.80;;;1.70;;
26034;SDS011;13809;48.632;11.576;2022-10-16T08:53:36;3.00;;;1.80;;
26034;SDS011;13809;48.632;11.576;2022-10-16T08:58:45;2.60;;;2.10;;
26034;SDS011;13809;48.632;11.576;2022-10-16T09:04:00;2.27;;;1.73;;
26034;SDS011;13809;48.632;11.576;2022-10-16T09:09:24;1.70;;;1.60;;
26034;SDS011;13809;48.632;11.576;2022-10-16T09:14:45;1.60;;;1.50;;
26034;SDS011;13809;48.632;11.576;2022-10-16T09:20:03;1.77;;;1.67;;
26034;SDS011;13809;48.632;11.576;2022-10-16T09:25:20;2.30;;;1.57;;
26034;SDS011;13809;48.632;11.576;2022-10-16T09:30:26;1.77;;;1.50;;
26034;SDS011;13809;48.632;11.576;2022-10-16T09:35:32;1.63;;;1.53;;
26034;SDS011;13809;48.632;11.576;2022-10-16T09:40:40;1.60;;;1.50;;
26034;SDS011;13809;48.632;11.576;2022-10-16T09:45:52;2.43;;;1.60;;
26034;SDS011;13809;48.632;11.576;2022-10-16T09:51:00;1.27;;;1.17;;
26034;SDS011;13809;48.632;11.576;2022-10-16T09:56:06;1.73;;;1.60;;
26034;SDS011;13809;48.632;11.576;2022-10-16T10:01:14;1.67;;;1.57;;
26034;SDS011;13809;48.632;11.576;2022-10-16T10:06:22;1.80;;;1.70;;
26034;SDS011;13809;48.632;11.576;2022-10-16T10:11:38;1.77;;;1.57;;
26034;SDS011;13809;48.632;11.576;2022-10-16T10:16:53;3.50;;;1.70;;
26034;SDS011;13809;48.632;11.576;2022-10-16T10:22:18;1.83;;;1.67;;
26034;SDS011;13809;48.632;11.576;2022-10-16T10:27:32;1.50;;;1.40;;
26034;SDS011;13809;48.632;11.576;2022-10-16T10:32:44;1.80;;;1.70;;
26034;SDS011;13809;48.632;11.576;2022-10-16T10:37:57;1.70;;;1.60;;
26034;SDS011;13809;48.632;11.576;2022-10-16T10:43:12;1.90;;;1.70;;
26034;SDS011;13809;48.632;11.576;2022-10-16T10:48:27;1.60;;;1.50;;
26034;SDS011;13809;48.632;11.576;2022-10-16T10:53:55;1.77;;;1.40;;
26034;SDS011;13809;48.632;11.576;2022-10-16T10:59:27;3.93;;;1.50;;
26034;SDS011;13809;48.632;11.576;2022-10-16T11:04:55;2.50;;;1.50;;
26034;SDS011;13809;48.632;11.576;2022-10-16T11:10:18;1.60;;;1.50;;
26034;SDS011;13809;48.632;11.576;2022-10-16T11:15:25;1.80;;;1.70;;
26034;SDS011;13809;48.632;11.576;2022-10-16T11:20:33;1.70;;;1.60;;
26034;SDS011;13809;48.632;11.576;2022-10-16T11:25:41;1.57;;;1.40;;
26034;SDS011;13809;48.632;11.576;2022-10-16T11:30:49;1.70;;;1.60;;
26034;SDS011;13809;48.632;11.576;2022-10-16T11:35:59;1.63;;;1.53;;
26034;SDS011;13809;48.632;11.576;2022-10-16T11:41:09;3.10;;;1.70;;
26034;SDS011;13809;48.632;11.576;2022-10-16T11:46:21;3.23;;;1.60;;
26034;SDS011;13809;48.632;11.576;2022-10-16T11:51:29;1.60;;;1.50;;
26034;SDS011;13809;48.632;11.576;2022-10-16T11:56:38;1.63;;;1.53;;
26034;SDS011;13809;48.632;11.576;2022-10-16T12:01:44;2.70;;;1.63;;
26034;SDS011;13809;48.632;11.576;2022-10-16T12:06:53;1.50;;;1.40;;
26034;SDS011;13809;48.632;11.576;2022-10-16T12:12:00;2.30;;;1.50;;
26034;SDS011;13809;48.632;11.576;2022-10-16T12:22:29;1.50;;;1.40;;
26034;SDS011;13809;48.632;11.576;2022-10-16T12:27:37;1.50;;;1.30;;
26034;SDS011;13809;48.632;11.576;2022-10-16T12:32:42;1.30;;;1.30;;
26034;SDS011;13809;48.632;11.576;2022-10-16T12:37:47;1.40;;;1.40;;
26034;SDS011;13809;48.632;11.576;2022-10-16T12:42:51;2.00;;;1.30;;
26034;SDS011;13809;48.632;11.576;2022-10-16T12:47:56;1.10;;;1.00;;
26034;SDS011;13809;48.632;11.576;2022-10-16T12:53:01;1.10;;;1.00;;
26034;SDS011;13809;48.632;11.576;2022-10-16T12:58:09;1.13;;;1.07;;
26034;SDS011;13809;48.632;11.576;2022-10-16T13:03:37;1.13;;;1.00;;
26034;SDS011;13809;48.632;11.576;2022-10-16T13:14:30;1.10;;;1.00;;
26034;SDS011;13809;48.632;11.576;2022-10-16T13:19:57;2.20;;;0.80;;
26034;SDS011;13809;48.632;11.576;2022-10-16T13:25:14;0.90;;;0.90;;
26034;SDS011;13809;48.632;11.576;2022-10-16T13:30:26;1.00;;;0.90;;
26034;SDS011;13809;48.632;11.576;2022-10-16T13:35:33;1.77;;;1.10;;
26034;SDS011;13809;48.632;11.576;2022-10-16T13:40:47;0.97;;;0.97;;
26034;SDS011;13809;48.632;11.576;2022-10-16T13:45:52;1.30;;;1.20;;
26034;SDS011;13809;48.632;11.576;2022-10-16T13:51:06;1.27;;;1.23;;
26034;SDS011;13809;48.632;11.576;2022-10-16T13:56:15;1.10;;;1.10;;
26034;SDS011;13809;48.632;11.576;2022-10-16T14:01:19;3.03;;;0.97;;
26034;SDS011;13809;48.632;11.576;2022-10-16T14:06:33;1.20;;;1.10;;
26034;SDS011;13809;48.632;11.576;2022-10-16T14:11:42;0.90;;;0.90;;
26034;SDS011;13809;48.632;11.576;2022-10-16T14:16:49;1.23;;;1.00;;
26034;SDS011;13809;48.632;11.576;2022-10-16T14:21:53;1.00;;;0.97;;
26034;SDS011;13809;48.632;11.576;2022-10-16T14:26:57;1.07;;;0.97;;
26034;SDS011;13809;48.632;11.576;2022-10-16T14:32:01;1.10;;;1.10;;
26034;SDS011;13809;48.632;11.576;2022-10-16T14:37:08;2.00;;;0.90;;
26034;SDS011;13809;48.632;11.576;2022-10-16T14:42:18;1.17;;;1.07;;
26034;SDS011;13809;48.632;11.576;2022-10-16T14:47:25;2.33;;;1.10;;
26034;SDS011;13809;48.632;11.576;2022-10-16T14:52:31;1.03;;;0.97;;
26034;SDS011;13809;48.632;11.576;2022-10-16T14:57:34;1.20;;;1.10;;
26034;SDS011;13809;48.632;11.576;2022-10-16T15:02:40;3.30;;;1.10;;
26034;SDS011;13809;48.632;11.576;2022-10-16T15:07:45;2.80;;;1.10;;
26034;SDS011;13809;48.632;11.576;2022-10-16T15:12:50;1.33;;;1.10;;
26034;SDS011;13809;48.632;11.576;2022-10-16T15:17:54;1.43;;;1.10;;
26034;SDS011;13809;48.632;11.576;2022-10-16T15:22:59;2.63;;;1.17;;
26034;SDS011;13809;48.632;11.576;2022-10-16T15:28:04;1.63;;;1.10;;
26034;SDS011;13809;48.632;11.576;2022-10-16T15:33:11;1.33;;;1.17;;
26034;SDS011;13809;48.632;11.576;2022-10-16T15:38:18;2.50;;;1.20;;
26034;SDS011;13809;48.632;11.576;2022-10-16T15:43:23;1.40;;;1.00;;
26034;SDS011;13809;48.632;11.576;2022-10-16T15:48:26;1.93;;;1.20;;
26034;SDS011;13809;48.632;11.576;2022-10-16T15:53:32;5.40;;;1.30;;
26034;SDS011;13809;48.632;11.576;2022-10-16T15:58:35;1.20;;;1.10;;
26034;SDS011;13809;48.632;11.576;2022-10-16T16:03:38;1.70;;;1.10;;
26034;SDS011;13809;48.632;11.576;2022-10-16T16:08:43;2.67;;;1.33;;
26034;SDS011;13809;48.632;11.576;2022-10-16T16:13:46;1.20;;;1.20;;
26034;SDS011;13809;48.632;11.576;2022-10-16T16:18:52;2.40;;;1.03;;
26034;SDS011;13809;48.632;11.576;2022-10-16T16:23:57;3.17;;;1.40;;
26034;SDS011;13809;48.632;11.576;2022-10-16T16:29:01;5.53;;;1.80;;
26034;SDS011;13809;48.632;11.576;2022-10-16T16:34:05;3.90;;;2.30;;
26034;SDS011;13809;48.632;11.576;2022-10-16T16:39:10;3.30;;;3.10;;
26034;SDS011;13809;48.632;11.576;2022-10-16T16:44:13;35.67;;;5.43;;
26034;SDS011;13809;48.632;11.576;2022-10-16T16:49:18;3.77;;;3.47;;
26034;SDS011;13809;48.632;11.576;2022-10-16T16:54:22;3.73;;;3.43;;
26034;SDS011;13809;48.632;11.576;2022-10-16T16:59:25;3.53;;;3.33;;
26034;SDS011;13809;48.632;11.576;2022-10-16T17:04:28;6.27;;;3.30;;
26034;SDS011;13809;48.632;11.576;2022-10-16T17:09:33;3.20;;;2.90;;
26034;SDS011;13809;48.632;11.576;2022-10-16T17:14:36;5.80;;;3.03;;
26034;SDS011;13809;48.632;11.576;2022-10-16T17:19:39;5.43;;;3.20;;
26034;SDS011;13809;48.632;11.576;2022-10-16T17:24:44;5.40;;;3.50;;
26034;SDS011;13809;48.632;11.576;2022-10-16T17:29:51;4.63;;;4.23;;
26034;SDS011;13809;48.632;11.576;2022-10-16T17:34:55;6.40;;;5.70;;
26034;SDS011;13809;48.632;11.576;2022-10-16T17:39:59;7.23;;;6.47;;
26034;SDS011;13809;48.632;11.576;2022-10-16T17:45:03;4.83;;;3.60;;
26034;SDS011;13809;48.632;11.576;2022-10-16T17:50:07;4.40;;;4.00;;
26034;SDS011;13809;48.632;11.576;2022-10-16T17:55:17;4.30;;;3.57;;
26034;SDS011;13809;48.632;11.576;2022-10-16T18:00:27;3.57;;;3.23;;
26034;SDS011;13809;48.632;11.576;2022-10-16T18:05:30;4.50;;;3.20;;
26034;SDS011;13809;48.632;11.576;2022-10-16T18:10:35;3.10;;;2.90;;
26034;SDS011;13809;48.632;11.576;2022-10-16T18:15:38;2.70;;;2.50;;
26034;SDS011;13809;48.632;11.576;2022-10-16T18:20:41;6.13;;;2.10;;
26034;SDS011;13809;48.632;11.576;2022-10-16T18:25:52;3.07;;;2.00;;
26034;SDS011;13809;48.632;11.576;2022-10-16T18:30:55;3.00;;;1.70;;
26034;SDS011;13809;48.632;11.576;2022-10-16T18:35:59;3.63;;;2.50;;
26034;SDS011;13809;48.632;11.576;2022-10-16T18:41:05;4.43;;;2.50;;
26034;SDS011;13809;48.632;11.576;2022-10-16T18:46:09;5.80;;;3.00;;
26034;SDS011;13809;48.632;11.576;2022-10-16T18:51:14;3.57;;;3.07;;
26034;SDS011;13809;48.632;11.576;2022-10-16T18:56:20;6.47;;;3.50;;
26034;SDS011;13809;48.632;11.576;2022-10-16T19:01:25;5.27;;;4.77;;
26034;SDS011;13809;48.632;11.576;2022-10-16T19:06:32;11.63;;;7.53;;
26034;SDS011;13809;48.632;11.576;2022-10-16T19:11:37;8.63;;;7.10;;
26034;SDS011;13809;48.632;11.576;2022-10-16T19:16:42;10.90;;;7.73;;
26034;SDS011;13809;48.632;11.576;2022-10-16T19:21:46;9.17;;;7.60;;
26034;SDS011;13809;48.632;11.576;2022-10-16T19:26:57;7.30;;;6.60;;
26034;SDS011;13809;48.632;11.576;2022-10-16T19:32:00;7.07;;;6.27;;
26034;SDS011;13809;48.632;11.576;2022-10-16T19:37:07;7.20;;;6.50;;
26034;SDS011;13809;48.632;11.576;2022-10-16T19:42:12;10.00;;;6.83;;
26034;SDS011;13809;48.632;11.576;2022-10-16T19:47:15;9.70;;;6.93;;
26034;SDS011;13809;48.632;11.576;2022-10-16T19:52:23;11.30;;;7.53;;
26034;SDS011;13809;48.632;11.576;2022-10-16T19:57:28;8.57;;;6.90;;
26034;SDS011;13809;48.632;11.576;2022-10-16T20:02:33;7.03;;;5.67;;
26034;SDS011;13809;48.632;11.576;2022-10-16T20:07:37;6.83;;;6.13;;
26034;SDS011;13809;48.632;11.576;2022-10-16T20:12:42;9.57;;;6.47;;
26034;SDS011;13809;48.632;11.576;2022-10-16T20:17:45;8.73;;;7.17;;
26034;SDS011;13809;48.632;11.576;2022-10-16T20:22:48;8.50;;;6.97;;
26034;SDS011;13809;48.632;11.576;2022-10-16T20:27:53;8.37;;;6.87;;
26034;SDS011;13809;48.632;11.576;2022-10-16T20:32:56;7.37;;;6.63;;
26034;SDS011;13809;48.632;11.576;2022-10-16T20:37:59;7.37;;;6.63;;
26034;SDS011;13809;48.632;11.576;2022-10-16T20:43:04;8.73;;;6.13;;
26034;SDS011;13809;48.632;11.576;2022-10-16T20:48:08;5.87;;;5.37;;
26034;SDS011;13809;48.632;11.576;2022-10-16T20:53:12;12.03;;;5.20;;
26034;SDS011;13809;48.632;11.576;2022-10-16T20:58:16;5.60;;;4.70;;
26034;SDS011;13809;48.632;11.576;2022-10-16T21:03:20;4.23;;;3.63;;
26034;SDS011;13809;48.632;11.576;2022-10-16T21:08:23;4.53;;;3.20;;
26034;SDS011;13809;48.632;11.576;2022-10-16T21:13:27;3.80;;;2.97;;
26034;SDS011;13809;48.632;11.576;2022-10-16T21:18:31;3.73;;;3.37;;
26034;SDS011;13809;48.632;11.576;2022-10-16T21:23:34;5.50;;;3.33;;
26034;SDS011;13809;48.632;11.576;2022-10-16T21:28:39;3.67;;;3.30;;
26034;SDS011;13809;48.632;11.576;2022-10-16T21:33:42;3.50;;;2.67;;
26034;SDS011;13809;48.632;11.576;2022-10-16T21:38:45;3.00;;;2.70;;
26034;SDS011;13809;48.632;11.576;2022-10-16T21:43:50;2.60;;;2.40;;
26034;SDS011;13809;48.632;11.576;2022-10-16T21:48:55;2.47;;;2.27;;
26034;SDS011;13809;48.632;11.576;2022-10-16T21:53:59;4.03;;;2.47;;
26034;SDS011;13809;48.632;11.576;2022-10-16T21:59:04;3.10;;;2.43;;
26034;SDS011;13809;48.632;11.576;2022-10-16T22:04:08;2.87;;;2.67;;
26034;SDS011;13809;48.632;11.576;2022-10-16T22:09:12;2.80;;;2.30;;
26034;SDS011;13809;48.632;11.576;2022-10-16T22:14:18;4.20;;;2.43;;
26034;SDS011;13809;48.632;11.576;2022-10-16T22:19:22;2.90;;;2.40;;
26034;SDS011;13809;48.632;11.576;2022-10-16T22:24:25;2.43;;;2.23;;
26034;SDS011;13809;48.632;11.576;2022-10-16T22:29:32;3.07;;;2.30;;
26034;SDS011;13809;48.632;11.576;2022-10-16T22:34:35;3.00;;;2.30;;
26034;SDS011;13809;48.632;11.576;2022-10-16T22:39:38;2.37;;;2.17;;
26034;SDS011;13809;48.632;11.576;2022-10-16T22:44:43;2.37;;;2.17;;
26034;SDS011;13809;48.632;11.576;2022-10-16T22:49:46;2.73;;;2.13;;
26034;SDS011;13809;48.632;11.576;2022-10-16T22:54:49;4.90;;;2.13;;
26034;SDS011;13809;48.632;11.576;2022-10-16T22:59:53;3.07;;;2.10;;
26034;SDS011;13809;48.632;11.576;2022-10-16T23:04:57;2.53;;;2.10;;
26034;SDS011;13809;48.632;11.576;2022-10-16T23:10:00;2.60;;;2.20;;
26034;SDS011;13809;48.632;11.576;2022-10-16T23:15:05;2.40;;;2.20;;
26034;SDS011;13809;48.632;11.576;2022-10-16T23:20:09;3.23;;;2.13;;
26034;SDS011;13809;48.632;11.576;2022-10-16T23:25:12;2.70;;;2.00;;
26034;SDS011;13809;48.632;11.576;2022-10-16T23:30:17;2.57;;;1.83;;
26034;SDS011;13809;48.632;11.576;2022-10-16T23:35:22;2.00;;;1.90;;
26034;SDS011;13809;48.632;11.576;2022-10-16T23:40:25;1.97;;;1.80;;
26034;SDS011;13809;48.632;11.576;2022-10-16T23:45:30;3.00;;;1.73;;
26034;SDS011;13809;48.632;11.576;2022-10-16T23:50:33;2.33;;;1.80;;
26034;SDS011;13809;48.632;11.576;2022-10-16T23:55:36;2.47;;;1.90;;
